< < Back
Terminal Aerodrome Forecast


Current Version              Previous Versions:   1  2  3  4  5  6  7  8  9  

Terminal Aerodrome Forecast

904
FTUS42 KFFC 262329
TAFCSG
TAF
KCSG 262329Z 2700/2724 33010KT P6SM BKN025
     FM270300 34006KT P6SM SCT025
     FM270600 34004KT P6SM SCT250
     FM271500 35008KT P6SM SCT250=

Latest METAR

676
SAUS70 KWBC 271654
MTRCSG
METAR KCSG 271651Z VRB05KT 10SM CLR 08/M03 A3039 RMK AO2 SLP293
T00781033


USA.gov is the U.S. government's official web portal to all federal, state and local government web resources and services.